Time;durP1;ratioP1;P1;durP2;ratioP2;P2;SDS_P1;SDS_P2;PMS_P1;PMS_P2;Temp;Humidity;BMP_temperature;BMP_pressure;BME280_temperature;BME280_humidity;BME280_pressure;Samples;Min_cycle;Max_cycle;Signal;HPM_P1;HPM_P2
2022/01/31 00:01:24;;;;;;;30.10;13.13;;;;;;;-1.88;72.20;96715.56;5029709;28;20400;-59
2022/01/31 00:03:50;;;;;;;32.40;14.10;;;;;;;-1.90;71.72;96720.97;5031563;28;20045;-58
2022/01/31 00:06:16;;;;;;;24.27;12.48;;;;;;;-1.91;71.77;96722.00;5031143;28;20050;-60
2022/01/31 00:08:42;;;;;;;28.88;13.80;;;;;;;-1.89;72.19;96717.34;5030964;28;20037;-59
2022/01/31 00:11:08;;;;;;;28.00;12.02;;;;;;;-1.87;72.05;96719.75;5030335;28;20525;-57
2022/01/31 00:13:38;;;;;;;26.48;12.35;;;;;;;-1.87;71.89;96709.34;5033810;28;20033;-60
2022/01/31 00:16:05;;;;;;;22.48;12.35;;;;;;;-1.89;71.94;96711.38;5034302;28;20068;-58
2022/01/31 00:18:30;;;;;;;25.67;11.90;;;;;;;-1.89;71.51;96708.78;5035424;28;20046;-58
2022/01/31 00:20:56;;;;;;;24.00;11.77;;;;;;;-1.90;71.80;96712.41;5035709;28;20199;-58
2022/01/31 00:23:22;;;;;;;24.55;12.20;;;;;;;-1.94;72.33;96706.06;5035179;28;20041;-59
2022/01/31 00:25:48;;;;;;;24.92;13.32;;;;;;;-1.89;71.99;96706.97;5035522;28;20046;-59
2022/01/31 00:28:14;;;;;;;26.13;12.20;;;;;;;-1.80;72.37;96701.47;5033973;28;20057;-59
2022/01/31 00:30:40;;;;;;;25.70;11.85;;;;;;;-1.81;71.64;96695.47;5014036;28;20049;-59
2022/01/31 00:33:07;;;;;;;27.23;13.23;;;;;;;-1.83;71.88;96682.72;5014296;28;20065;-58
2022/01/31 00:35:36;;;;;;;28.83;13.63;;;;;;;-1.84;72.26;96685.53;5013911;28;20041;-59
2022/01/31 00:38:01;;;;;;;24.95;11.93;;;;;;;-1.87;71.79;96683.41;5016757;28;20053;-58
2022/01/31 00:40:27;;;;;;;27.70;12.45;;;;;;;-1.82;71.99;96686.13;5035246;28;20123;-58
2022/01/31 00:42:53;;;;;;;28.13;13.18;;;;;;;-1.84;71.75;96682.94;5034903;28;20081;-58
2022/01/31 00:45:30;;;;;;;26.23;11.93;;;;;;;-1.86;71.87;96679.78;5033926;28;20503;-57
2022/01/31 00:48:01;;;;;;;22.77;12.85;;;;;;;-1.83;72.63;96676.72;5034275;28;20492;-57
2022/01/31 00:50:37;;;;;;;26.60;12.85;;;;;;;-1.83;71.79;96671.53;5017431;28;20045;-56
2022/01/31 00:53:03;;;;;;;30.83;11.95;;;;;;;-1.78;71.95;96673.47;5017775;28;20056;-59
2022/01/31 00:55:28;;;;;;;26.77;11.75;;;;;;;-1.79;72.15;96671.88;5035040;28;20041;-59
2022/01/31 00:57:54;;;;;;;21.17;11.15;;;;;;;-1.84;72.06;96673.34;5033338;28;20041;-58
2022/01/31 01:00:20;;;;;;;24.88;12.25;;;;;;;-1.79;71.92;96667.50;5034820;28;20045;-59
2022/01/31 01:02:46;;;;;;;28.40;12.75;;;;;;;-1.80;72.10;96675.50;5016975;28;20041;-59
2022/01/31 01:05:13;;;;;;;26.30;12.05;;;;;;;-1.80;72.39;96672.88;5033342;28;20068;-57
2022/01/31 01:07:39;;;;;;;24.50;12.32;;;;;;;-1.85;72.31;96663.19;5034617;28;20037;-56
2022/01/31 01:10:06;;;;;;;22.55;10.70;;;;;;;-1.79;71.74;96669.28;5034001;28;20042;-58
2022/01/31 01:12:32;;;;;;;28.63;12.40;;;;;;;-1.71;72.40;96671.53;5032944;28;20099;-58
2022/01/31 01:14:58;;;;;;;25.30;11.73;;;;;;;-1.67;71.80;96675.28;5033273;28;20057;-59
2022/01/31 01:17:24;;;;;;;24.38;11.90;;;;;;;-1.69;71.76;96675.50;5033197;28;20041;-59
2022/01/31 01:19:50;;;;;;;27.48;12.43;;;;;;;-1.60;72.08;96683.75;5016463;28;20429;-58
2022/01/31 01:22:15;;;;;;;22.50;11.23;;;;;;;-1.67;71.41;96676.06;5033199;28;20045;-58
2022/01/31 01:24:41;;;;;;;26.55;12.52;;;;;;;-1.67;71.74;96678.66;5014870;28;20050;-58
2022/01/31 01:27:09;;;;;;;24.60;11.55;;;;;;;-1.70;72.23;96671.34;5032890;28;20033;-59
2022/01/31 01:29:35;;;;;;;28.45;12.73;;;;;;;-1.69;71.94;96677.31;5032855;28;20084;-59
2022/01/31 01:32:01;;;;;;;25.02;12.40;;;;;;;-1.73;71.68;96678.78;5016458;28;20065;-58
2022/01/31 01:34:34;;;;;;;27.98;13.18;;;;;;;-1.67;72.54;96678.66;5016843;28;20088;-63
2022/01/31 01:37:01;;;;;;;27.88;13.18;;;;;;;-1.62;71.93;96678.78;5032636;28;20049;-57
2022/01/31 01:39:28;;;;;;;27.80;12.82;;;;;;;-1.63;71.60;96677.19;4999814;28;20574;-59
2022/01/31 01:41:54;;;;;;;26.35;12.50;;;;;;;-1.61;71.68;96674.38;5032311;28;20132;-58
2022/01/31 01:44:47;;;;;;;34.22;13.13;;;;;;;-1.61;71.56;96682.19;5016301;28;20083;-57
2022/01/31 01:47:23;;;;;;;29.25;13.95;;;;;;;-1.60;72.12;96674.13;5015992;28;20128;-58
2022/01/31 01:49:51;;;;;;;28.50;12.98;;;;;;;-1.61;71.91;96674.38;5016191;28;20548;-57
2022/01/31 01:52:19;;;;;;;29.05;12.90;;;;;;;-1.64;71.79;96678.22;5032921;28;20042;-59
2022/01/31 01:54:46;;;;;;;22.98;12.07;;;;;;;-1.62;71.85;96684.00;5032547;28;20045;-57
2022/01/31 01:57:12;;;;;;;25.90;12.30;;;;;;;-1.66;71.70;96677.66;5033160;28;20030;-57
2022/01/31 01:59:40;;;;;;;33.55;14.55;;;;;;;-1.58;71.77;96671.34;5032935;28;20077;-56
2022/01/31 02:02:45;;;;;;;30.33;15.23;;;;;;;-1.53;71.99;96674.06;5031520;28;20049;-58
2022/01/31 02:05:15;;;;;;;31.42;13.93;;;;;;;-1.55;71.50;96673.47;5014676;28;20060;-57
2022/01/31 02:07:42;;;;;;;32.22;14.20;;;;;;;-1.60;71.52;96666.34;5030841;28;20128;-58
2022/01/31 02:10:11;;;;;;;37.10;15.15;;;;;;;-1.58;71.65;96671.34;5030175;28;20041;-57
2022/01/31 02:12:53;;;;;;;31.33;13.55;;;;;;;-1.54;71.80;96672.44;4997874;28;20407;-58
2022/01/31 02:15:39;;;;;;;32.05;13.80;;;;;;;-1.49;71.50;96671.78;5030850;28;20515;-58
2022/01/31 02:18:27;;;;;;;37.20;15.82;;;;;;;-1.43;71.77;96671.66;5000144;28;20061;-57
2022/01/31 02:20:54;;;;;;;36.03;15.82;;;;;;;-1.49;71.47;96669.19;5030792;28;20044;-58
2022/01/31 02:23:21;;;;;;;30.63;14.18;;;;;;;-1.41;72.22;96668.84;5014015;28;20041;-58
2022/01/31 02:25:57;;;;;;;31.02;13.85;;;;;;;-1.38;70.83;96674.38;5013841;28;20057;-55
2022/01/31 02:28:52;;;;;;;29.92;14.00;;;;;;;-1.40;71.53;96673.81;5026216;28;20087;-58
2022/01/31 02:31:19;;;;;;;27.63;13.02;;;;;;;-1.50;71.30;96672.78;5013753;28;20438;-56
2022/01/31 02:33:46;;;;;;;32.22;14.25;;;;;;;-1.51;71.68;96674.59;5005455;28;20057;-58
2022/01/31 02:36:12;;;;;;;29.63;14.48;;;;;;;-1.45;71.51;96675.50;5030767;28;20406;-58
2022/01/31 02:38:38;;;;;;;38.03;15.75;;;;;;;-1.49;72.04;96671.78;5031666;28;20037;-58
2022/01/31 02:41:05;;;;;;;27.25;13.30;;;;;;;-1.38;71.83;96682.16;5031747;28;20042;-58
2022/01/31 02:43:33;;;;;;;32.67;13.88;;;;;;;-1.33;71.51;96688.47;5031376;28;20388;-58
2022/01/31 02:45:59;;;;;;;29.30;13.50;;;;;;;-1.37;71.25;96675.16;5031028;28;20109;-58
2022/01/31 02:48:28;;;;;;;32.40;13.65;;;;;;;-1.39;71.16;96679.78;5014878;28;20491;-57
2022/01/31 02:50:54;;;;;;;33.78;15.07;;;;;;;-1.45;71.57;96675.50;5014957;28;20143;-58
2022/01/31 02:55:55;;;;;;;28.52;13.65;;;;;;;-1.42;71.95;96680.25;5031059;28;20041;-58
2022/01/31 02:58:23;;;;;;;29.88;13.70;;;;;;;-1.48;72.72;96683.75;5031492;28;20103;-59
2022/01/31 03:00:51;;;;;;;32.00;14.20;;;;;;;-1.46;72.98;96674.72;4998881;28;20053;-58
2022/01/31 03:03:20;;;;;;;32.60;13.63;;;;;;;-1.46;72.07;96671.31;5031323;28;20438;-58
2022/01/31 03:05:46;;;;;;;35.10;14.23;;;;;;;-1.46;72.42;96672.13;5014740;28;20104;-56
2022/01/31 03:08:14;;;;;;;31.83;14.07;;;;;;;-1.51;72.67;96668.59;5030858;28;20045;-58
2022/01/31 03:10:41;;;;;;;32.72;15.07;;;;;;;-1.50;72.44;96675.38;5014465;28;20045;-57
2022/01/31 03:13:08;;;;;;;32.22;14.57;;;;;;;-1.50;72.58;96677.97;5030670;28;20136;-58
2022/01/31 03:15:41;;;;;;;38.13;13.85;;;;;;;-1.38;73.67;96671.78;5032313;28;20045;-57
2022/01/31 03:18:27;;;;;;;37.17;14.77;;;;;;;-1.37;72.74;96677.75;5040844;28;20057;-58
2022/01/31 03:20:53;;;;;;;32.58;14.10;;;;;;;-1.37;72.73;96672.56;5014463;28;20124;-58
2022/01/31 03:23:19;;;;;;;26.52;12.95;;;;;;;-1.43;72.59;96670.88;5031247;28;20400;-58
2022/01/31 03:25:45;;;;;;;33.88;14.45;;;;;;;-1.41;72.77;96674.84;5032543;28;20092;-58
2022/01/31 03:28:16;;;;;;;33.42;14.85;;;;;;;-1.46;73.32;96674.72;5031574;28;20037;-58
2022/01/31 03:30:42;;;;;;;32.95;13.82;;;;;;;-1.40;72.80;96676.41;5031368;28;20068;-58
2022/01/31 03:33:08;;;;;;;34.60;15.40;;;;;;;-1.35;72.84;96675.72;5030952;28;20045;-58
2022/01/31 03:35:34;;;;;;;34.45;14.75;;;;;;;-1.32;72.69;96680.47;5010802;28;20054;-56
2022/01/31 03:38:00;;;;;;;27.88;13.27;;;;;;;-1.29;73.26;96676.63;5010682;28;20057;-56
2022/01/31 03:40:28;;;;;;;33.00;14.02;;;;;;;-1.28;72.94;96679.00;4994519;28;20046;-57
2022/01/31 03:42:54;;;;;;;32.92;14.80;;;;;;;-1.32;73.18;96667.47;5010501;28;20041;-57
2022/01/31 03:45:20;;;;;;;37.60;15.63;;;;;;;-1.30;73.62;96673.22;5010717;28;20646;-58
2022/01/31 03:47:50;;;;;;;37.75;15.52;;;;;;;-1.28;73.54;96675.59;5026262;28;20049;-58
2022/01/31 03:50:18;;;;;;;32.97;15.52;;;;;;;-1.27;73.78;96677.19;5012080;28;20415;-57
2022/01/31 03:52:48;;;;;;;37.78;15.40;;;;;;;-1.29;73.18;96672.22;4994016;28;20578;-58
2022/01/31 03:55:15;;;;;;;34.75;14.75;;;;;;;-1.32;73.45;96670.06;4994610;28;20053;-59
2022/01/31 03:57:45;;;;;;;32.78;14.52;;;;;;;-1.31;73.78;96673.47;5010506;28;20052;-58
2022/01/31 04:00:29;;;;;;;32.47;14.55;;;;;;;-1.31;74.29;96666.44;5010518;28;20132;-58
2022/01/31 04:02:54;;;;;;;29.70;14.48;;;;;;;-1.28;73.35;96671.19;5011581;28;20132;-58
2022/01/31 04:05:20;;;;;;;28.02;13.38;;;;;;;-1.22;73.46;96677.28;5011154;28;20052;-58
2022/01/31 04:07:46;;;;;;;31.45;14.52;;;;;;;-1.22;73.61;96677.28;4993805;28;20095;-59
2022/01/31 04:10:11;;;;;;;33.90;15.65;;;;;;;-1.24;73.77;96677.50;5011880;28;20046;-58
2022/01/31 04:12:37;;;;;;;32.15;15.10;;;;;;;-1.21;73.40;96678.84;5011607;28;20048;-58
2022/01/31 04:15:03;;;;;;;32.65;14.80;;;;;;;-1.26;72.99;96676.97;5011715;28;20046;-56
2022/01/31 04:17:31;;;;;;;34.50;14.65;;;;;;;-1.19;73.67;96680.22;5011730;28;20053;-57
2022/01/31 04:19:57;;;;;;;34.10;14.68;;;;;;;-1.23;73.17;96676.50;5011335;28;20077;-59
2022/01/31 04:22:25;;;;;;;31.08;14.45;;;;;;;-1.13;73.97;96667.34;5011593;28;20495;-59
2022/01/31 04:24:55;;;;;;;34.92;13.75;;;;;;;-1.14;72.62;96663.94;5010270;28;20052;-59
2022/01/31 04:27:23;;;;;;;38.33;14.55;;;;;;;-1.16;73.56;96666.75;5011553;28;20426;-59
2022/01/31 04:29:50;;;;;;;29.67;14.13;;;;;;;-1.18;72.46;96668.00;5011470;28;20049;-57
2022/01/31 04:32:16;;;;;;;33.00;14.10;;;;;;;-1.18;73.21;96661.03;5011507;28;20411;-57
2022/01/31 04:34:41;;;;;;;35.78;14.98;;;;;;;-1.14;73.51;96674.34;5011302;28;20137;-59
2022/01/31 04:37:08;;;;;;;37.13;16.67;;;;;;;-1.17;73.54;96675.59;5011067;28;20623;-58
2022/01/31 04:39:34;;;;;;;33.80;15.30;;;;;;;-1.12;72.89;96668.91;5026452;28;20504;-57
2022/01/31 04:41:59;;;;;;;33.88;16.17;;;;;;;-1.17;73.45;96662.59;5011165;28;20048;-59
2022/01/31 04:44:25;;;;;;;32.45;14.23;;;;;;;-1.18;72.89;96668.00;5010141;28;20046;-59
2022/01/31 04:46:51;;;;;;;33.78;15.23;;;;;;;-1.13;73.14;96662.13;5011268;28;20521;-58
2022/01/31 04:49:18;;;;;;;34.50;14.77;;;;;;;-1.17;72.56;96670.38;5009647;28;20050;-58
2022/01/31 04:51:44;;;;;;;35.65;15.68;;;;;;;-1.16;72.94;96668.56;5010903;28;20041;-57
2022/01/31 04:54:10;;;;;;;37.53;14.65;;;;;;;-1.21;73.08;96671.06;5011217;28;20062;-59
2022/01/31 04:56:38;;;;;;;37.13;15.68;;;;;;;-1.24;73.15;96672.31;5009922;28;20042;-59
2022/01/31 04:59:04;;;;;;;37.35;15.77;;;;;;;-1.24;73.22;96661.91;5012659;28;20049;-58
2022/01/31 05:01:30;;;;;;;36.85;15.85;;;;;;;-1.28;73.75;96671.19;5014443;28;20593;-59
2022/01/31 05:03:55;;;;;;;37.78;15.10;;;;;;;-1.23;73.37;96673.13;5034248;28;20063;-59
2022/01/31 05:06:28;;;;;;;35.80;15.10;;;;;;;-1.22;72.90;96679.88;5033098;28;20506;-59
2022/01/31 05:08:53;;;;;;;32.05;14.20;;;;;;;-1.17;73.41;96685.19;5034147;28;20149;-56
2022/01/31 05:11:21;;;;;;;40.08;16.33;;;;;;;-1.11;73.66;96680.91;5034304;28;20072;-53
2022/01/31 05:13:47;;;;;;;34.42;15.65;;;;;;;-1.13;72.91;96675.91;4999998;28;20048;-58
2022/01/31 05:16:13;;;;;;;34.83;16.00;;;;;;;-1.11;73.16;96681.69;5034495;28;20042;-56
2022/01/31 05:18:39;;;;;;;37.15;15.75;;;;;;;-1.16;72.92;96677.16;5033130;28;20045;-54
2022/01/31 05:21:05;;;;;;;47.25;16.48;;;;;;;-1.16;72.55;96673.78;5034244;28;20045;-56
2022/01/31 05:23:32;;;;;;;37.97;16.58;;;;;;;-1.08;72.75;96675.25;5034055;28;20123;-57
2022/01/31 05:25:58;;;;;;;37.63;17.40;;;;;;;-1.03;72.17;96672.72;5034150;28;20057;-56
2022/01/31 05:28:24;;;;;;;35.95;16.00;;;;;;;-0.97;72.43;96684.81;5033514;28;20091;-58
2022/01/31 05:30:49;;;;;;;35.35;14.93;;;;;;;-0.93;72.08;96681.53;5032725;28;20042;-58
2022/01/31 05:33:15;;;;;;;32.78;14.10;;;;;;;-0.94;71.87;96681.78;5033608;28;20403;-59
2022/01/31 05:35:41;;;;;;;35.22;14.32;;;;;;;-0.85;72.14;96690.78;5033772;28;20041;-56
2022/01/31 05:38:07;;;;;;;32.45;14.90;;;;;;;-0.78;72.53;96686.25;5015921;28;20128;-57
2022/01/31 05:40:33;;;;;;;29.25;13.68;;;;;;;-0.74;71.04;96682.13;5032356;28;20045;-58
2022/01/31 05:42:58;;;;;;;31.10;14.10;;;;;;;-0.75;71.30;96677.19;5029985;28;20518;-56
2022/01/31 05:45:24;;;;;;;34.22;16.92;;;;;;;-0.82;71.75;96679.94;5032132;28;20056;-55
2022/01/31 05:47:50;;;;;;;29.40;14.20;;;;;;;-0.84;72.15;96683.78;5032956;28;20052;-54
2022/01/31 05:50:15;;;;;;;32.45;15.30;;;;;;;-0.85;72.16;96683.00;5033334;28;20049;-57
2022/01/31 05:52:42;;;;;;;38.88;16.25;;;;;;;-0.87;71.71;96682.41;5032256;28;20041;-55
2022/01/31 05:55:08;;;;;;;30.73;14.23;;;;;;;-0.86;71.73;96686.59;5015797;28;20049;-57
2022/01/31 05:57:33;;;;;;;33.03;14.00;;;;;;;-0.83;72.15;96683.53;5015678;28;20037;-55
2022/01/31 05:59:59;;;;;;;32.22;15.27;;;;;;;-0.81;72.06;96684.09;5033483;28;20058;-55
2022/01/31 06:02:25;;;;;;;31.70;14.90;;;;;;;-0.86;71.36;96685.81;5033509;28;20037;-57
2022/01/31 06:04:53;;;;;;;38.05;15.05;;;;;;;-0.84;71.68;96691.56;5031535;28;20041;-55
2022/01/31 06:07:21;;;;;;;31.50;13.20;;;;;;;-0.79;71.78;96686.47;5029706;28;20044;-52
2022/01/31 06:09:47;;;;;;;33.40;13.95;;;;;;;-0.78;71.15;96690.66;5014731;28;20041;-56
2022/01/31 06:12:15;;;;;;;29.25;14.10;;;;;;;-0.80;71.77;96692.69;5033179;28;20529;-54
2022/01/31 06:14:41;;;;;;;33.00;14.07;;;;;;;-0.79;72.18;96681.28;5030718;28;20278;-56
2022/01/31 06:17:06;;;;;;;28.95;14.00;;;;;;;-0.72;71.64;96690.50;5031836;28;20128;-55
2022/01/31 06:19:32;;;;;;;32.05;15.10;;;;;;;-0.81;71.15;96688.50;5031829;28;20455;-55
2022/01/31 06:21:58;;;;;;;35.42;15.52;;;;;;;-0.81;71.87;96697.09;5031547;28;20584;-56
2022/01/31 06:24:24;;;;;;;37.35;14.88;;;;;;;-0.77;72.41;96693.00;5024210;28;20053;-55
2022/01/31 06:26:50;;;;;;;34.47;14.88;;;;;;;-0.65;72.62;96687.78;5030811;28;20045;-57
2022/01/31 06:29:21;;;;;;;37.03;16.65;;;;;;;-0.62;72.12;96683.91;5029244;28;20468;-54
2022/01/31 06:31:53;;;;;;;32.75;14.57;;;;;;;-0.73;71.67;96678.53;4993494;28;20415;-55
2022/01/31 06:34:19;;;;;;;36.30;16.23;;;;;;;-0.69;72.05;96677.03;5026477;28;20045;-54
2022/01/31 06:36:45;;;;;;;28.42;14.07;;;;;;;-0.56;71.62;96678.59;5026808;28;20054;-56
2022/01/31 06:39:11;;;;;;;35.00;14.35;;;;;;;-0.62;71.09;96686.53;5025269;28;20338;-55
2022/01/31 06:41:37;;;;;;;31.65;14.85;;;;;;;-0.56;71.39;96678.59;5032385;28;20459;-53
2022/01/31 06:44:03;;;;;;;33.47;16.35;;;;;;;-0.57;71.38;96677.00;5031124;28;20419;-56
2022/01/31 06:46:29;;;;;;;35.15;16.00;;;;;;;-0.57;71.31;96679.59;5029470;28;20625;-60
2022/01/31 06:48:54;;;;;;;42.28;18.67;;;;;;;-0.56;71.83;96680.38;5030935;28;20033;-55
2022/01/31 06:51:20;;;;;;;39.53;18.23;;;;;;;-0.57;71.27;96669.19;5031705;28;20071;-57
2022/01/31 06:53:48;;;;;;;39.47;16.20;;;;;;;-0.49;71.84;96670.66;5029975;28;20147;-55
2022/01/31 06:56:16;;;;;;;45.63;18.10;;;;;;;-0.43;71.46;96669.72;5026662;28;20061;-55
2022/01/31 06:58:42;;;;;;;42.83;18.55;;;;;;;-0.35;71.76;96666.72;5028500;28;20064;-58
2022/01/31 07:01:07;;;;;;;47.58;20.13;;;;;;;-0.30;71.01;96668.63;5029386;28;20503;-61
2022/01/31 07:03:36;;;;;;;46.35;19.52;;;;;;;-0.35;70.79;96674.53;5030118;28;20126;-59
2022/01/31 07:06:02;;;;;;;41.55;18.90;;;;;;;-0.33;71.57;96676.91;5031078;28;20079;-60
2022/01/31 07:08:28;;;;;;;40.85;17.60;;;;;;;-0.32;71.87;96671.47;5027488;28;20125;-57
2022/01/31 07:10:54;;;;;;;44.15;18.10;;;;;;;-0.36;71.64;96677.38;5030781;28;20474;-59
2022/01/31 07:13:39;;;;;;;40.33;18.52;;;;;;;-0.36;71.99;96672.94;5030348;28;20045;-60
2022/01/31 07:16:05;;;;;;;40.10;17.50;;;;;;;-0.33;72.01;96676.91;5026011;28;20045;-59
2022/01/31 07:18:33;;;;;;;42.95;18.52;;;;;;;-0.26;71.36;96680.16;5027509;28;20447;-58
2022/01/31 07:20:59;;;;;;;40.40;17.73;;;;;;;-0.20;71.48;96675.84;5027725;28;20041;-60
2022/01/31 07:23:37;;;;;;;36.90;17.13;;;;;;;-0.22;70.75;96683.88;5029309;28;20049;-60
2022/01/31 07:26:03;;;;;;;35.53;16.55;;;;;;;-0.21;71.16;96687.25;5027381;28;20045;-58
2022/01/31 07:28:29;;;;;;;43.67;18.27;;;;;;;-0.16;71.35;96682.13;5026950;28;20419;-59
2022/01/31 07:30:56;;;;;;;42.38;16.33;;;;;;;-0.08;70.99;96684.38;5030830;28;20050;-57
2022/01/31 07:33:22;;;;;;;36.92;16.70;;;;;;;0.01;70.73;96676.97;5028988;28;20041;-57
2022/01/31 07:35:49;;;;;;;41.28;17.50;;;;;;;-0.06;70.52;96677.91;5029285;28;20050;-57
2022/01/31 07:38:16;;;;;;;36.53;17.25;;;;;;;0.04;70.95;96679.09;5028972;28;20462;-58
2022/01/31 07:40:43;;;;;;;43.50;18.75;;;;;;;0.13;69.90;96677.66;5027059;28;20045;-57
2022/01/31 07:43:08;;;;;;;42.53;17.38;;;;;;;0.15;69.67;96675.63;5028924;28;20041;-61
2022/01/31 07:45:34;;;;;;;38.33;17.75;;;;;;;0.15;69.41;96673.03;5027911;28;20448;-58
2022/01/31 07:48:00;;;;;;;43.83;18.73;;;;;;;0.21;69.80;96672.06;5029069;28;20042;-59
2022/01/31 07:50:26;;;;;;;39.78;18.13;;;;;;;0.33;70.14;96672.78;5028561;28;20517;-59
2022/01/31 07:52:52;;;;;;;38.35;16.08;;;;;;;0.34;69.31;96676.16;5026375;28;20562;-56
2022/01/31 07:55:18;;;;;;;36.03;16.63;;;;;;;0.29;69.92;96676.06;5022450;28;20132;-57
2022/01/31 07:57:46;;;;;;;39.85;16.95;;;;;;;0.11;70.61;96672.69;5028073;28;20068;-57
2022/01/31 08:00:13;;;;;;;39.47;16.30;;;;;;;0.22;71.02;96684.06;5027717;28;20048;-57
2022/01/31 08:02:39;;;;;;;40.15;16.33;;;;;;;0.25;70.67;96685.41;5011439;28;20069;-58
2022/01/31 08:05:07;;;;;;;43.03;18.85;;;;;;;0.31;70.61;96689.66;5011962;28;20088;-59
2022/01/31 08:07:36;;;;;;;35.42;17.05;;;;;;;0.29;71.33;96687.28;5024429;28;20040;-59
2022/01/31 08:10:04;;;;;;;42.00;17.73;;;;;;;0.20;71.54;96689.50;5029775;28;20499;-60
2022/01/31 08:12:32;;;;;;;42.90;17.27;;;;;;;0.25;71.10;96685.41;5029933;28;20140;-60
2022/01/31 08:15:03;;;;;;;40.78;16.10;;;;;;;0.28;70.85;96690.16;5027159;28;20050;-57
2022/01/31 08:17:30;;;;;;;44.13;17.45;;;;;;;0.32;70.68;96686.03;5030390;28;20072;-58
2022/01/31 08:19:55;;;;;;;45.75;19.88;;;;;;;0.37;70.93;96696.53;4996675;28;20124;-58
2022/01/31 08:22:21;;;;;;;40.63;19.48;;;;;;;0.44;70.81;96678.91;5029581;28;20132;-60
2022/01/31 08:24:47;;;;;;;42.88;19.05;;;;;;;0.37;71.31;96686.09;5026916;28;20053;-58
2022/01/31 08:27:13;;;;;;;50.90;21.75;;;;;;;0.50;71.31;96693.63;5026581;28;20029;-56
2022/01/31 08:29:39;;;;;;;54.08;24.17;;;;;;;0.49;71.09;96697.22;5029772;28;20140;-56
2022/01/31 08:32:14;;;;;;;44.83;20.38;;;;;;;0.53;71.58;96695.75;5028434;28;20037;-58
2022/01/31 08:37:25;;;;;;;45.40;20.17;;;;;;;0.53;70.74;96693.13;5030317;28;20465;-60
2022/01/31 08:39:51;;;;;;;43.58;19.48;;;;;;;0.48;70.45;96687.06;5034041;28;20136;-59
2022/01/31 08:42:17;;;;;;;45.28;19.45;;;;;;;0.41;71.02;96688.00;5032292;28;20061;-59
2022/01/31 08:44:42;;;;;;;45.92;18.08;;;;;;;0.41;70.82;96680.19;5029201;28;20072;-62
2022/01/31 08:47:08;;;;;;;39.42;18.38;;;;;;;0.48;70.70;96685.25;5032215;28;20033;-62
2022/01/31 08:49:36;;;;;;;42.42;17.83;;;;;;;0.55;70.36;96682.47;5011588;28;20041;-63
2022/01/31 08:52:03;;;;;;;45.20;19.65;;;;;;;0.63;71.30;96664.59;5025459;28;20041;-63
2022/01/31 08:54:29;;;;;;;46.10;18.58;;;;;;;0.74;71.29;96673.34;5030969;28;20068;-61
2022/01/31 08:56:55;;;;;;;42.13;18.65;;;;;;;0.65;70.30;96669.56;5030153;28;20498;-63
2022/01/31 08:59:24;;;;;;;44.78;20.35;;;;;;;0.70;69.80;96676.66;5030993;28;20049;-61
2022/01/31 09:02:02;;;;;;;47.53;19.73;;;;;;;0.81;70.12;96673.16;5033179;28;20084;-62
2022/01/31 09:04:47;;;;;;;43.55;18.30;;;;;;;0.84;70.18;96672.69;5031922;28;20045;-61
2022/01/31 09:07:19;;;;;;;48.88;19.92;;;;;;;0.83;70.83;96668.50;5029125;28;20034;-61
2022/01/31 09:09:50;;;;;;;47.47;18.10;;;;;;;0.88;69.99;96682.41;5032689;28;20499;-61
2022/01/31 09:12:16;;;;;;;48.70;19.50;;;;;;;0.82;69.85;96664.31;5032074;28;20043;-61
2022/01/31 09:14:43;;;;;;;43.78;17.52;;;;;;;0.80;70.73;96666.38;5032533;28;20076;-62
2022/01/31 09:17:09;;;;;;;49.67;19.95;;;;;;;0.70;69.92;96674.84;5032424;28;20052;-62
2022/01/31 09:19:35;;;;;;;44.65;19.58;;;;;;;0.66;70.75;96666.72;5033200;28;20045;-61
2022/01/31 09:22:01;;;;;;;41.05;18.60;;;;;;;0.68;71.15;96675.09;5029269;28;20049;-61
2022/01/31 09:24:28;;;;;;;55.72;20.85;;;;;;;0.76;71.25;96676.47;5032336;28;20419;-62
2022/01/31 09:26:55;;;;;;;43.40;17.50;;;;;;;0.72;70.62;96672.78;5032744;28;20044;-62
2022/01/31 09:29:20;;;;;;;42.97;17.92;;;;;;;0.71;70.83;96679.03;5031534;28;20076;-62
2022/01/31 09:31:46;;;;;;;39.95;18.13;;;;;;;0.70;70.95;96684.47;5032247;28;20096;-62
2022/01/31 09:34:12;;;;;;;39.92;18.60;;;;;;;0.67;71.36;96683.94;5032434;28;20053;-61
2022/01/31 09:36:38;;;;;;;39.30;16.13;;;;;;;0.66;71.30;96687.56;5031228;28;20057;-60
2022/01/31 09:39:07;;;;;;;41.90;17.50;;;;;;;0.59;71.34;96681.75;5030356;28;20048;-59
2022/01/31 09:41:35;;;;;;;47.38;17.85;;;;;;;0.63;71.64;96679.44;5030352;28;20037;-63
2022/01/31 09:49:13;;;;;;;33.78;14.48;;;;;;;0.87;70.39;96680.03;5031360;28;20049;-62
2022/01/31 09:51:39;;;;;;;36.25;16.45;;;;;;;0.89;70.57;96675.38;5029054;28;20041;-62
2022/01/31 09:54:05;;;;;;;35.10;15.00;;;;;;;0.81;69.95;96673.94;5014112;28;20049;-63
2022/01/31 09:56:34;;;;;;;44.83;18.00;;;;;;;0.77;70.68;96672.09;5031359;28;20037;-61
2022/01/31 09:59:01;;;;;;;45.38;19.30;;;;;;;0.81;70.56;96670.56;5030567;28;20048;-62
2022/01/31 10:01:41;;;;;;;71.13;24.92;;;;;;;0.78;71.09;96678.88;5030557;28;20462;-60
2022/01/31 10:04:19;;;;;;;58.92;23.27;;;;;;;0.65;70.88;96677.41;5031135;28;20037;-60
2022/01/31 10:06:47;;;;;;;64.55;25.27;;;;;;;0.74;71.81;96673.34;5030413;28;20050;-61
2022/01/31 10:09:19;;;;;;;55.33;21.67;;;;;;;0.65;70.96;96677.41;5027028;28;20284;-61
2022/01/31 10:12:04;;;;;;;54.42;22.63;;;;;;;0.64;71.38;96668.75;5011956;28;20046;-61
2022/01/31 10:17:40;;;;;;;53.83;21.83;;;;;;;0.71;71.21;96665.19;5029665;28;20605;-61
2022/01/31 10:20:30;;;;;;;52.85;21.50;;;;;;;0.70;71.46;96667.03;5031038;28;20498;-59
2022/01/31 10:23:16;;;;;;;55.42;21.52;;;;;;;0.76;71.89;96667.88;5014823;23;20642;-58
2022/01/31 10:25:42;;;;;;;58.65;22.98;;;;;;;0.70;71.79;96667.03;4969944;28;20082;-58
2022/01/31 10:28:19;;;;;;;66.78;23.30;;;;;;;0.69;71.10;96662.84;4971513;28;20043;-58
2022/01/31 10:30:46;;;;;;;56.03;23.63;;;;;;;0.60;71.50;96654.66;4968012;28;20446;-59
2022/01/31 10:33:13;;;;;;;54.63;23.45;;;;;;;0.65;71.79;96665.16;4976629;28;20046;-58
2022/01/31 10:35:40;;;;;;;64.18;24.88;;;;;;;0.75;71.76;96661.09;4975270;28;20035;-59
2022/01/31 10:38:14;;;;;;;58.53;23.02;;;;;;;0.66;71.85;96652.91;4988210;28;20133;-57
2022/01/31 10:50:37;;;;;;;65.70;23.20;;;;;;;0.44;73.02;96665.88;4987788;28;20070;-54
2022/01/31 10:54:29;;;;;;;68.03;22.95;;;;;;;0.50;72.72;96659.72;4976866;28;20149;-58
2022/01/31 10:57:07;;;;;;;57.50;21.17;;;;;;;0.56;72.85;96663.97;4976163;28;20070;-59
2022/01/31 10:59:35;;;;;;;66.20;22.85;;;;;;;0.58;72.23;96666.34;4968254;28;20394;-57
2022/01/31 11:02:07;;;;;;;56.28;22.08;;;;;;;0.51;72.57;96661.28;4979906;28;20050;-57
2022/01/31 11:04:38;;;;;;;61.45;23.38;;;;;;;0.49;72.76;96660.75;4968817;28;20130;-57
2022/01/31 11:07:08;;;;;;;62.33;24.42;;;;;;;0.45;73.32;96657.03;4979855;28;20177;-59
2022/01/31 11:09:34;;;;;;;60.88;23.98;;;;;;;0.45;72.96;96655.22;4997886;28;20034;-57
2022/01/31 11:12:01;;;;;;;58.88;22.85;;;;;;;0.44;73.33;96658.06;4989578;28;20058;-54
2022/01/31 11:14:29;;;;;;;67.93;25.02;;;;;;;0.47;73.71;96656.78;4971562;28;20072;-56
2022/01/31 11:17:10;;;;;;;61.50;24.85;;;;;;;0.44;72.58;96656.25;4971368;28;20049;-57
2022/01/31 11:19:41;;;;;;;62.22;22.90;;;;;;;0.38;72.76;96646.78;4985891;28;20042;-55
2022/01/31 11:22:08;;;;;;;;;;;;;;;0.38;73.55;96649.41;4981647;28;20539;-55
2022/01/31 11:24:53;;;;;;;73.07;23.58;;;;;;;0.43;72.88;96652.06;4967219;28;20457;-57
2022/01/31 11:27:23;;;;;;;58.47;23.23;;;;;;;0.41;73.71;96656.75;4969457;28;20053;-58
2022/01/31 11:29:55;;;;;;;66.13;25.02;;;;;;;0.48;73.82;96653.19;4984806;28;20039;-55
2022/01/31 11:32:25;;;;;;;63.47;22.13;;;;;;;0.40;73.37;96652.53;4970370;28;20457;-56
2022/01/31 11:34:52;;;;;;;66.43;24.08;;;;;;;0.38;73.30;96646.78;4986061;28;20515;-57
2022/01/31 11:37:20;;;;;;;65.90;22.35;;;;;;;0.40;73.58;96646.53;4981789;28;20046;-55
2022/01/31 11:39:52;;;;;;;57.47;21.48;;;;;;;0.39;73.67;96648.38;4969529;28;20517;-55
2022/01/31 11:42:18;;;;;;;62.30;23.00;;;;;;;0.46;73.42;96640.38;4956174;28;20057;-57
2022/01/31 11:45:09;;;;;;;57.95;23.30;;;;;;;0.43;73.39;96651.28;4973055;28;20042;-56
2022/01/31 11:47:36;;;;;;;56.15;21.73;;;;;;;0.49;74.09;96642.50;4989238;28;20413;-56
2022/01/31 11:50:08;;;;;;;57.97;22.55;;;;;;;0.42;73.56;96647.88;4991079;28;20133;-56